Aérodrome :
LOGIN :

S'inscrire | Disclaimer

   EN    FR    IT 

 










Légende :    VFR   VFR Marginal   IFR   IFR Intensif   IFR Très Intensif
Visi : 
Plafond : 
>= 8 km
>= 3000ft
5 à 8 km
1000 à 3000 ft
1500m à 5 km
500 à 1000 ft
800 à 1500m
200 à 500 ft
< 800m
< 200 ft
Symboles :   Orages  Brouillard  Fortes neiges  Fortes précipitations  Vent > 20 kt
SIGMETs :   Divers  Orages  Givrage  Turbulence  Onde Orograph.  Cendres Volcan.







- Altitude de l'aérodrome : 194 ft
- Code IATA : LME
- Voir les cartes d'approche


LFRM - Le Mans

DERNIER METAR :
  • 171830Z AUTO VRB02KT CAVOK 17/14 Q1015 NOSIG

METARs EXPIRÉS :
  • 171800Z AUTO 06002KT CAVOK 18/14 Q1015 NOSIG
  • 171730Z AUTO 06004KT CAVOK 19/15 Q1014 NOSIG
  • 171700Z AUTO 07002KT CAVOK 20/15 Q1014 NOSIG
  • 171630Z AUTO 08005KT CAVOK 21/15 Q1014 NOSIG
  • 171600Z AUTO 10005KT 070V140 CAVOK 22/15 Q1015 NOSIG

TAF TAF LFRM
Valide du 17 à 18h jusqu'au 18 à 03h UTC


171700Z 1718/1803 VRB03KT CAVOK
PROB30
TEMPO 1800/1803 0800 FG VV///
Pas de NOTAMs connus pour ce terrain.



MET'MAP, la Météo Aéronautique d'un coup d'oeil ! - Copyright ORBIFLY Décembre 2007 - Disclaimer

ORBIFLY MET'MAP TEAM :

Programmation & Développement : Alexandra Zaïnal
Conception & Développement : Baudouin d'Aumeries
Co-Programmation & Développement : Marc-Olivier Méhu
Soutien technique & logistique : Manuel Goepfert

Contact : metmap@orbifly.com




SOURCES & CREDITS :

   NOAA